Station: Woomera

  Atmospheric Gas Attenuation - ITU Rec 676-11   --------------- db/100km ---------------
Date Time Temp RH % AH g/m3 Dew Point Wind Direction Speed kph Gust kph Barometer mB Rainfall Since 9am 24GHz 47GHz 76GHz 122GHz 134GHz 241GHz
24 20:20 36.9 11 4.8 1.6 30 33 999.9 0 10.8 15.5 19.2 49.9 38.7 131.5
24 20:10 37.2 10 4.43 0.5 26 33 999.7 0 10.1 15.1 18.2 47.2 35.5 120.2
24 20:00 37.5 10 4.5 0.7 33 46 999.5 0 10.2 15.1 18.3 47.5 36.0 121.8
24 19:50 37.5 10 4.5 0.7 28 41 999.5 0 10.2 15.1 18.3 47.5 36.0 121.8
24 19:40 37.7 10 4.55 0.9 33 39 999.6 0 10.3 15.1 18.4 47.8 36.3 123.0
24 19:30 37.6 10 4.52 0.8 26 39 1000 0 10.3 15.1 18.4 47.6 36.1 122.3
24 19:20 38.1 9 4.18 -0.3 26 30 1000 0 9.6 14.7 17.4 45.1 33.1 111.8
24 19:10 37.8 10 4.57 1 11 15 1000.1 0 10.4 15.1 18.4 47.9 36.4 123.5
24 19:00 37.7 10 4.55 0.9 22 30 1000.4 0 10.3 15.2 18.4 47.8 36.3 123.1
24 18:50 37.9 9 4.13 -0.4 19 22 1000.3 0 9.5 14.7 17.3 44.9 32.8 110.6
24 18:40 38.1 9 4.18 -0.3 17 24 1000.3 0 9.6 14.7 17.4 45.1 33.1 111.8
24 18:30 37.9 10 4.59 1 15 26 1000.6 0 10.4 15.2 18.5 48.0 36.6 124.0
24 18:20 38.1 9 4.18 -0.3 11 15 1000.5 0 9.6 14.7 17.4 45.1 33.1 111.9
24 18:10 38.2 9 4.2 -0.2 11 13 1000.6 0 9.6 14.7 17.5 45.2 33.3 112.3
24 18:00 38.1 9 4.18 -0.3 22 44 1000.7 0 9.6 14.7 17.4 45.1 33.1 111.9
24 17:50 38.6 9 4.28 0.1 43 52 1001 0 9.7 14.8 17.6 45.6 33.8 114.1
24 17:40 38.6 9 4.28 0.1 22 26 1001.2 0 9.7 14.8 17.6 45.6 33.8 114.2
24 17:30 38.6 9 4.28 0.1 15 26 1001.2 0 9.7 14.8 17.6 45.6 33.8 114.2
24 17:20 38.7 9 4.31 0.2 11 13 1001.4 0 9.8 14.8 17.7 45.7 34.0 114.9
24 17:10 39 9 4.37 0.4 17 20 1001.3 0 9.9 14.8 17.7 46.0 34.4 116.2
24 17:00 39 9 4.37 0.4 24 43 1001.2 0 9.9 14.8 17.7 46.0 34.4 116.2
24 16:50 39 9 4.37 0.4 22 28 1001.6 0 9.9 14.8 17.7 46.0 34.4 116.3
24 16:40 39.1 10 4.88 1.9 19 22 1001.6 0 10.9 15.3 19.0 49.3 38.5 130.8
24 16:30 39.3 9 4.44 0.6 19 37 1001.4 0 10.0 14.8 17.9 46.3 34.8 117.8
24 16:20 39.4 9 4.46 0.7 26 32 1001.4 0 10.1 14.8 17.9 46.4 34.9 118.3
24 16:10 39.3 9 4.44 0.6 13 15 1001.6 0 10.0 14.8 17.9 46.3 34.8 117.9
24 16:00 39.8 9 4.55 1 17 28 1001.5 0 10.3 14.9 18.0 46.7 35.5 120.3
24 15:50 40.2 8 4.13 -0.3 9 11 1001.7 0 9.4 14.4 16.9 43.8 32.0 108.0
24 15:40 40 8 4.09 -0.5 9 11 1001.8 0 9.3 14.4 16.9 43.7 31.8 107.1
24 15:30 40.2 8 4.13 -0.3 11 20 1001.7 0 9.4 14.4 16.9 43.8 32.0 108.0
24 15:20 40.4 8 4.17 -0.2 9 11 1001.9 0 9.5 14.4 17.0 44.0 32.2 108.9
24 15:10 40.6 8 4.21 0 15 17 1001.9 0 9.6 14.4 17.1 44.2 32.5 109.7
24 15:00 40.4 8 4.17 -0.2 15 24 1001.9 0 9.5 14.4 17.0 44.0 32.2 108.9
24 14:50 41.1 8 4.32 0.3 24 28 1002.1 0 9.8 14.5 17.2 44.6 33.2 112.2
24 14:40 40.6 9 4.74 1.6 19 20 1002.3 0 10.6 15.0 18.3 47.6 36.7 124.7
24 14:30 40.6 9 4.74 1.6 17 37 1002.3 0 10.6 15.0 18.3 47.6 36.7 124.7
24 14:20 41.2 9 4.88 2 24 39 1002.5 0 10.9 15.0 18.6 48.2 37.6 127.9
24 14:10 40.8 8 4.25 0.1 15 17 1002.6 0 9.6 14.4 17.1 44.3 32.8 110.7
24 14:00 40.9 9 4.81 1.8 19 24 1002.7 0 10.8 15.0 18.5 47.9 37.2 126.3
24 13:50 40.6 9 4.74 1.6 20 24 1002.9 0 10.6 15.0 18.4 47.6 36.8 124.8
24 13:40 40.4 9 4.69 1.4 26 28 1003 0 10.5 15.0 18.3 47.4 36.4 123.7
24 13:30 40.5 10 5.24 3 24 35 1003.1 0 11.6 15.5 19.6 51.0 40.9 139.3
24 13:20 40.5 10 5.24 3 22 24 1003.4 0 11.6 15.5 19.6 51.0 40.9 139.4
24 13:10 40.6 10 5.26 3.1 22 26 1003.6 0 11.7 15.5 19.7 51.1 41.0 139.8
24 13:00 40.6 10 5.26 3.1 28 39 1003.6 0 11.7 15.5 19.7 51.1 41.0 139.8
24 12:50 40.1 9 4.62 1.2 26 32 1003.9 0 10.4 15.0 18.2 47.2 36.0 122.2
24 12:40 40.3 10 5.19 2.8 24 30 1004 0 11.5 15.5 19.6 50.8 40.6 138.3
24 12:30 40 10 5.11 2.6 28 39 1004 0 11.4 15.5 19.4 50.5 40.1 136.5
24 12:20 39.9 10 5.08 2.5 28 32 1004.1 0 11.3 15.5 19.4 50.3 39.9 135.8
24 12:10 40 10 5.11 2.6 33 39 1004.1 0 11.4 15.5 19.4 50.5 40.1 136.5
24 12:00 39.9 10 5.08 2.5 30 35 1004.1 0 11.3 15.5 19.4 50.3 39.9 135.8
24 11:50 39.8 11 5.56 3.8 30 33 1004.1 0 12.3 16.0 20.6 53.6 43.9 150.0
24 11:40 40.1 10 5.13 2.7 35 39 1004.1 0 11.4 15.5 19.5 50.6 40.2 136.9
24 11:30 40.8 10 5.32 3.2 33 41 1004.1 0 11.8 15.6 19.8 51.4 41.4 141.3
24 11:20 40 11 5.62 4 32 35 1004.3 0 12.4 16.0 20.7 53.9 44.3 151.5
24 11:10 39.2 11 5.4 3.4 35 41 1004.3 0 12.0 15.9 20.3 52.9 42.9 146.3
24 11:00 38.4 12 5.65 4 32 43 1004.5 0 12.5 16.3 21.2 55.1 45.4 155.2
24 10:50 39 12 5.83 4.4 32 37 1004.5 0 12.9 16.4 21.5 56.0 46.6 159.5
24 10:40 38.5 12 5.68 4.1 30 35 1004.5 0 12.6 16.3 21.2 55.3 45.6 155.9
24 10:30 38.2 12 5.6 3.8 32 37 1004.6 0 12.4 16.3 21.1 54.9 45.1 154.0
24 10:20 37.7 13 5.91 4.6 32 33 1004.6 0 13.1 16.7 22.0 57.4 48.1 164.4
24 10:10 37.2 13 5.76 4.2 28 32 1004.7 0 12.8 16.6 21.8 56.7 47.0 160.7
24 10:00 36.6 14 6.02 4.8 32 43 1004.8 0 13.3 17.0 22.6 59.0 49.7 169.9
24 09:50 36.2 14 5.89 4.5 30 33 1004.9 0 13.1 16.9 22.4 58.3 48.7 166.7
24 09:40 35.8 14 5.77 4.2 28 32 1005 0 12.8 16.9 22.2 57.7 47.9 163.7
24 09:30 34.6 14 5.42 3.2 26 30 1005 0 12.2 16.7 21.5 56.0 45.4 154.9
24 09:20 33.6 15 5.51 3.4 26 30 1005 0 12.4 17.0 22.0 57.3 46.8 159.6
24 09:10 32.9 14 4.96 1.9 22 24 1005.1 0 11.3 16.5 20.7 53.7 42.2 143.4
24 09:00 32.3 14 4.8 1.4 19 26 1005.1 0 11.0 16.4 20.4 52.9 41.1 139.3
24 08:50 31.7 14 4.65 1 19 20 1005 0 10.7 16.3 20.1 52.2 40.0 135.5
24 08:40 31.2 14 4.53 0.6 15 17 1005 0 10.4 16.3 19.9 51.6 39.2 132.5
24 08:30 30.3 14 4.32 -0.1 15 17 1004.8 0 10.0 16.2 19.5 50.6 37.7 127.1
24 08:20 29.9 14 4.22 -0.5 15 17 1004.7 0 9.8 16.1 19.4 50.1 36.9 124.5
24 08:10 29.4 14 4.11 -0.9 13 17 1004.7 0 9.6 16.1 19.2 49.6 36.2 121.7
24 08:00 29.1 14 4.04 -1.1 15 19 1004.6 0 9.5 16.1 19.0 49.3 35.7 119.9
24 07:50 28.9 14 4 -1.2 15 17 1004.5 0 9.4 16.1 19.0 49.1 35.4 118.9
24 07:40 28.6 14 3.93 -1.5 17 17 1004.4 0 9.3 16.0 18.9 48.7 34.9 117.1
24 07:30 28.2 14 3.85 -1.8 15 17 1004.4 0 9.1 16.0 18.7 48.4 34.3 115.1
24 07:20 28 14 3.81 -2 15 17 1004.3 0 9.1 16.0 18.7 48.2 34.0 114.0
24 07:10 27.8 15 4.03 -1.2 15 17 1004.2 0 9.5 16.3 19.3 49.9 36.1 121.4
24 07:00 27.4 15 3.95 -1.5 15 17 1004 0 9.4 16.2 19.2 49.5 35.5 119.3
24 06:50 27.4 15 3.95 -1.5 15 15 1004.1 0 9.4 16.2 19.2 49.6 35.5 119.3
24 06:40 27.8 14 3.77 -2.1 19 19 1003.9 0 9.0 16.0 18.6 48.0 33.7 113.0
24 06:30 27.9 14 3.79 -2 19 20 1003.7 0 9.0 16.0 18.6 48.1 33.9 113.5
24 06:20 27.9 14 3.79 -2 19 20 1003.7 0 9.0 16.0 18.6 48.1 33.9 113.5
24 06:10 28 14 3.81 -2 19 20 1003.7 0 9.1 16.0 18.6 48.2 34.0 114.0
24 06:00 28.4 14 3.89 -1.6 20 24 1003.6 0 9.2 16.0 18.8 48.5 34.6 116.0
24 05:50 27.9 14 3.79 -2 26 28 1003.8 0 9.0 16.0 18.6 48.1 33.9 113.5
24 05:40 28.3 14 3.87 -1.7 15 17 1003.5 0 9.2 16.0 18.7 48.4 34.4 115.5
24 05:30 28.8 13 3.69 -2.3 19 20 1003.3 0 8.8 15.7 18.1 46.8 32.6 109.1
24 05:20 28.2 14 3.85 -1.8 17 19 1003.3 0 9.1 16.0 18.7 48.3 34.3 114.9
24 04:50 28.7 13 3.67 -2.4 17 17 1003.2 0 8.7 15.7 18.1 46.7 32.5 108.6
24 04:40 28.8 13 3.69 -2.3 17 17 1003.2 0 8.8 15.7 18.1 46.8 32.6 109.1
24 04:30 28.9 13 3.71 -2.3 17 19 1003.1 0 8.8 15.7 18.2 46.9 32.7 109.6
24 04:20 28.9 13 3.71 -2.3 19 19 1003.2 0 8.8 15.7 18.2 46.9 32.7 109.6
24 04:10 28.7 13 3.67 -2.4 17 17 1003.3 0 8.7 15.7 18.1 46.7 32.5 108.6
24 04:00 28.9 12 3.43 -3.3 17 19 1003.2 0 8.3 15.4 17.4 44.9 30.3 100.8
24 03:50 29.4 12 3.52 -2.9 17 17 1003.3 0 8.4 15.4 17.6 45.3 30.9 103.0
24 03:40 29.4 12 3.52 -2.9 15 15 1003.4 0 8.4 15.4 17.6 45.3 30.9 103.1
24 03:30 29.4 12 3.52 -2.9 17 17 1003.5 0 8.4 15.4 17.6 45.3 30.9 103.1

Last Refresh: 24-Jan-2021 20:35:31

Most of the information presented on this site is sourced from the Bureau of Meteorology.  Copyright in all material sourced from the Bureau of Meteorology resides with the Commonwealth of Australia.